Time;durP1;ratioP1;P1;durP2;ratioP2;P2;SDS_P1;SDS_P2;PMS_P1;PMS_P2;Temp;Humidity;BMP_temperature;BMP_pressure;BME280_temperature;BME280_humidity;BME280_pressure;Samples;Min_cycle;Max_cycle;Signal;HPM_P1;HPM_P2
2021/01/11 00:00:58;;;;;;;0.30;0.30;;;-3.00;99.90;;;;;;5089212;28;20653;-76
2021/01/11 00:03:24;;;;;;;0.20;0.20;;;-3.10;99.90;;;;;;5089323;28;20203;-76
2021/01/11 00:05:50;;;;;;;0.20;0.20;;;-3.30;99.90;;;;;;5089244;28;20164;-76
2021/01/11 00:08:15;;;;;;;1.05;1.05;;;-3.30;99.90;;;;;;5087924;28;20198;-76
2021/01/11 00:10:41;;;;;;;0.35;0.35;;;-3.30;99.90;;;;;;5087730;28;20211;-77
2021/01/11 00:13:07;;;;;;;0.20;0.20;;;-3.50;99.90;;;;;;5089283;28;20152;-76
2021/01/11 00:15:33;;;;;;;0.25;0.25;;;-3.50;99.90;;;;;;5087899;28;20175;-76
2021/01/11 00:17:59;;;;;;;0.20;0.20;;;-3.50;99.90;;;;;;5089167;28;20148;-77
2021/01/11 00:20:25;;;;;;;0.10;0.10;;;-3.40;99.90;;;;;;5087703;28;20196;-77
2021/01/11 00:22:50;;;;;;;0.57;0.57;;;-3.40;99.90;;;;;;5087807;28;20182;-76
2021/01/11 00:25:16;;;;;;;0.20;0.20;;;-3.40;99.90;;;;;;5087835;28;20180;-77
2021/01/11 00:27:42;;;;;;;0.30;0.30;;;-3.50;99.90;;;;;;5087812;28;20186;-77
2021/01/11 00:30:10;;;;;;;0.20;0.20;;;-3.50;99.90;;;;;;5087630;28;20275;-76
2021/01/11 00:32:37;;;;;;;0.40;0.40;;;-3.70;99.90;;;;;;5087737;28;20172;-76
2021/01/11 00:35:05;;;;;;;1.60;1.50;;;-3.80;99.90;;;;;;5089009;28;20153;-76
2021/01/11 00:37:31;;;;;;;0.20;0.20;;;-3.80;99.90;;;;;;5087660;28;20260;-76
2021/01/11 00:39:58;;;;;;;0.50;0.50;;;-3.80;99.90;;;;;;5087490;28;20319;-76
2021/01/11 00:42:24;;;;;;;0.20;0.20;;;-3.90;99.90;;;;;;5087247;28;20232;-76
2021/01/11 00:44:49;;;;;;;0.30;0.30;;;-3.90;99.90;;;;;;5087565;28;20206;-77
2021/01/11 00:47:16;;;;;;;1.65;1.55;;;-4.00;99.90;;;;;;5087619;28;20515;-77
2021/01/11 00:49:42;;;;;;;2.33;1.55;;;-4.10;99.90;;;;;;5088666;28;20164;-76
2021/01/11 00:52:07;;;;;;;0.40;0.40;;;-4.10;99.90;;;;;;5088770;28;20635;-76
2021/01/11 00:54:34;;;;;;;0.30;0.30;;;-4.00;99.90;;;;;;5088845;28;20518;-76
2021/01/11 00:57:00;;;;;;;0.20;0.20;;;-3.80;99.90;;;;;;5087528;28;20195;-76
2021/01/11 00:59:26;;;;;;;0.30;0.30;;;-3.60;99.90;;;;;;5089671;28;20191;-76
2021/01/11 01:01:56;;;;;;;0.20;0.20;;;-3.60;99.90;;;;;;5092316;28;20198;-76
2021/01/11 01:04:23;;;;;;;0.30;0.30;;;-3.40;99.90;;;;;;5092380;28;20153;-76
2021/01/11 01:06:49;;;;;;;0.20;0.20;;;-3.20;99.90;;;;;;5091159;28;20193;-76
2021/01/11 01:09:15;;;;;;;0.65;0.65;;;-3.10;99.90;;;;;;5092268;28;20152;-76
2021/01/11 01:11:42;;;;;;;0.20;0.20;;;-3.00;99.90;;;;;;5092149;28;20207;-76
2021/01/11 01:14:09;;;;;;;0.52;0.52;;;-3.00;99.90;;;;;;5092220;28;20165;-76
2021/01/11 01:16:35;;;;;;;0.30;0.30;;;-2.90;99.90;;;;;;5109161;28;20198;-76
2021/01/11 01:19:02;;;;;;;0.20;0.20;;;-2.90;99.90;;;;;;5112472;28;20182;-76
2021/01/11 01:21:28;;;;;;;0.20;0.20;;;-2.80;99.90;;;;;;5111067;28;20348;-76
2021/01/11 01:23:54;;;;;;;1.67;1.60;;;-2.80;99.90;;;;;;5112361;28;20215;-76
2021/01/11 01:26:20;;;;;;;0.85;0.85;;;-2.80;99.90;;;;;;5110999;28;20171;-76
2021/01/11 01:28:46;;;;;;;0.25;0.25;;;-2.80;99.90;;;;;;5110863;28;20206;-77
2021/01/11 01:31:12;;;;;;;0.73;0.73;;;-2.80;99.90;;;;;;5110842;28;20195;-77
2021/01/11 01:33:38;;;;;;;0.15;0.15;;;-2.80;99.90;;;;;;5112261;28;20155;-77
2021/01/11 01:36:04;;;;;;;0.20;0.20;;;-2.70;99.90;;;;;;5110952;28;20171;-76
2021/01/11 01:38:29;;;;;;;0.32;0.32;;;-2.60;99.90;;;;;;5111925;28;20247;-76
2021/01/11 01:40:56;;;;;;;0.30;0.30;;;-2.60;99.90;;;;;;5110862;28;20179;-76
2021/01/11 01:43:22;;;;;;;0.20;0.20;;;-2.60;99.90;;;;;;5110474;28;20235;-76
2021/01/11 01:45:48;;;;;;;0.32;0.32;;;-2.50;99.90;;;;;;5112003;28;20716;-76
2021/01/11 01:48:15;;;;;;;0.30;0.30;;;-2.50;99.90;;;;;;5111741;28;20195;-76
2021/01/11 01:50:41;;;;;;;1.02;1.02;;;-2.40;99.90;;;;;;5111813;28;20187;-76
2021/01/11 01:53:08;;;;;;;0.20;0.20;;;-2.50;99.90;;;;;;5111891;28;20160;-76
2021/01/11 01:55:36;;;;;;;0.50;0.50;;;-2.60;99.90;;;;;;5110402;28;20155;-76
2021/01/11 01:58:04;;;;;;;0.20;0.20;;;-2.70;99.90;;;;;;5110911;28;20210;-76
2021/01/11 02:00:31;;;;;;;0.20;0.20;;;-2.70;99.90;;;;;;5110365;28;20198;-76
2021/01/11 02:02:56;;;;;;;0.10;0.10;;;-2.60;99.90;;;;;;5111629;28;20186;-77
2021/01/11 02:05:22;;;;;;;0.28;0.28;;;-2.60;99.90;;;;;;5110326;28;20175;-76
2021/01/11 02:08:04;;;;;;;0.43;0.43;;;-2.60;99.90;;;;;;5110051;28;20197;-76
2021/01/11 02:10:47;;;;;;;0.30;0.30;;;-2.60;99.90;;;;;;5110692;28;20183;-76
2021/01/11 02:13:46;;;;;;;0.20;0.20;;;-2.70;99.90;;;;;;5110189;28;20175;-76
2021/01/11 02:16:23;;;;;;;0.55;0.55;;;-2.80;99.90;;;;;;5109935;28;20646;-77
2021/01/11 02:18:51;;;;;;;0.20;0.20;;;-2.80;99.90;;;;;;5111228;28;20197;-76
2021/01/11 02:21:51;;;;;;;1.23;1.15;;;-2.90;99.90;;;;;;5109924;28;20187;-76
2021/01/11 02:24:48;;;;;;;0.20;0.20;;;-3.10;99.90;;;;;;5111112;28;20174;-76
2021/01/11 02:27:16;;;;;;;0.20;0.20;;;-3.10;99.90;;;;;;5109853;28;20176;-76
2021/01/11 02:30:13;;;;;;;0.20;0.20;;;-3.00;99.90;;;;;;5110780;28;20194;-77
2021/01/11 02:32:48;;;;;;;0.20;0.20;;;-2.90;99.90;;;;;;5111010;28;20170;-77
2021/01/11 02:35:17;;;;;;;0.20;0.20;;;-2.90;99.90;;;;;;5109674;28;20239;-76
2021/01/11 02:37:44;;;;;;;0.20;0.20;;;-3.00;99.90;;;;;;5110755;28;20159;-77
2021/01/11 02:40:11;;;;;;;0.25;0.25;;;-3.00;99.90;;;;;;5109603;28;20274;-77
2021/01/11 02:42:38;;;;;;;0.20;0.20;;;-3.20;99.90;;;;;;5110708;28;20215;-76
2021/01/11 02:45:07;;;;;;;0.20;0.20;;;-3.40;99.90;;;;;;5109373;28;20175;-76
2021/01/11 02:48:05;;;;;;;0.10;0.10;;;-3.40;99.90;;;;;;5110908;28;20205;-76
2021/01/11 02:50:44;;;;;;;0.15;0.15;;;-3.40;99.90;;;;;;5108869;28;20217;-76
2021/01/11 02:53:30;;;;;;;0.20;0.20;;;-3.30;99.90;;;;;;5110622;28;20143;-76
2021/01/11 02:56:10;;;;;;;1.17;1.05;;;-3.40;99.90;;;;;;5109316;28;20167;-76
2021/01/11 02:59:11;;;;;;;0.22;0.22;;;-3.40;99.90;;;;;;5108599;28;20222;-76
2021/01/11 03:01:52;;;;;;;0.10;0.10;;;-3.30;99.90;;;;;;5110460;28;20185;-76
2021/01/11 03:04:24;;;;;;;0.35;0.35;;;-3.30;99.90;;;;;;5110368;28;20166;-76
2021/01/11 03:07:02;;;;;;;0.20;0.20;;;-3.40;99.90;;;;;;5110400;28;20156;-77
2021/01/11 03:09:28;;;;;;;0.10;0.10;;;-3.60;99.90;;;;;;5109040;28;20197;-76
2021/01/11 03:11:55;;;;;;;0.95;0.95;;;-3.60;99.90;;;;;;5110290;28;20174;-77
2021/01/11 03:14:21;;;;;;;0.20;0.20;;;-3.70;99.90;;;;;;5110276;28;20148;-76
2021/01/11 03:16:47;;;;;;;0.20;0.20;;;-3.80;99.90;;;;;;5108913;28;20178;-77
2021/01/11 03:19:13;;;;;;;0.22;0.22;;;-3.80;99.90;;;;;;5110096;28;20187;-77
2021/01/11 03:21:40;;;;;;;0.20;0.20;;;-3.70;99.90;;;;;;5109528;28;20162;-77
2021/01/11 03:24:07;;;;;;;0.30;0.30;;;-3.60;99.90;;;;;;5108436;28;20171;-76
2021/01/11 03:26:34;;;;;;;0.20;0.20;;;-3.50;99.90;;;;;;5109548;28;20195;-76
2021/01/11 03:29:00;;;;;;;2.72;1.90;;;-3.60;99.90;;;;;;5108686;28;20167;-76
2021/01/11 03:31:26;;;;;;;2.30;2.10;;;-3.60;99.90;;;;;;5108463;28;20251;-77
2021/01/11 03:33:52;;;;;;;0.20;0.20;;;-3.50;99.90;;;;;;5108627;28;20170;-77
2021/01/11 03:36:18;;;;;;;0.20;0.20;;;-3.50;99.90;;;;;;5108348;28;20587;-76
2021/01/11 03:38:44;;;;;;;3.17;2.22;;;-3.50;99.90;;;;;;5109885;28;20164;-76
2021/01/11 03:41:10;;;;;;;0.35;0.35;;;-3.50;99.90;;;;;;5108386;28;20170;-76
2021/01/11 03:43:41;;;;;;;0.20;0.20;;;-3.60;99.90;;;;;;5107845;28;20240;-76
2021/01/11 03:46:08;;;;;;;0.13;0.13;;;-3.60;99.90;;;;;;5108052;28;20258;-76
2021/01/11 03:48:34;;;;;;;1.38;1.15;;;-3.60;99.90;;;;;;5109572;28;20155;-77
2021/01/11 03:51:01;;;;;;;0.30;0.30;;;-3.70;99.90;;;;;;5108274;28;20191;-76
2021/01/11 03:53:27;;;;;;;1.05;1.05;;;-3.80;99.90;;;;;;5109543;28;20175;-76
2021/01/11 03:55:53;;;;;;;0.73;0.73;;;-3.90;99.90;;;;;;5107847;28;20191;-77
2021/01/11 03:58:19;;;;;;;0.80;0.80;;;-3.80;99.90;;;;;;5108052;28;20242;-76
2021/01/11 04:00:48;;;;;;;1.52;1.42;;;-3.70;99.90;;;;;;5109343;28;20167;-76
2021/01/11 04:03:15;;;;;;;0.85;0.85;;;-3.70;99.90;;;;;;5109432;28;20184;-76
2021/01/11 04:05:45;;;;;;;0.20;0.20;;;-3.80;99.90;;;;;;5109318;28;20201;-76
2021/01/11 04:08:12;;;;;;;0.45;0.45;;;-3.90;99.90;;;;;;5109468;28;20159;-76
2021/01/11 04:10:38;;;;;;;0.85;0.85;;;-3.90;99.90;;;;;;5107732;28;20263;-76
2021/01/11 04:13:05;;;;;;;0.32;0.32;;;-4.10;99.90;;;;;;5109567;28;20152;-77
2021/01/11 04:15:31;;;;;;;0.30;0.30;;;-4.20;99.90;;;;;;5109313;28;20246;-76
2021/01/11 04:17:58;;;;;;;0.10;0.10;;;-4.00;99.90;;;;;;5109315;28;20175;-76
2021/01/11 04:20:24;;;;;;;0.25;0.25;;;-3.90;99.90;;;;;;5107893;28;20171;-76
2021/01/11 04:22:50;;;;;;;0.10;0.10;;;-3.80;99.90;;;;;;5109327;28;20242;-76
2021/01/11 04:25:16;;;;;;;0.20;0.20;;;-3.70;99.90;;;;;;5107959;28;20244;-76
2021/01/11 04:27:42;;;;;;;0.30;0.30;;;-3.70;99.90;;;;;;5109010;28;20159;-76
2021/01/11 04:30:10;;;;;;;0.20;0.20;;;-3.70;99.90;;;;;;5109189;28;20234;-76
2021/01/11 04:32:36;;;;;;;0.20;0.20;;;-3.80;99.90;;;;;;5107995;28;20171;-76
2021/01/11 04:35:03;;;;;;;0.20;0.20;;;-3.80;99.90;;;;;;5112665;28;20187;-76
2021/01/11 04:37:30;;;;;;;0.20;0.20;;;-3.90;99.90;;;;;;5113064;28;20171;-76
2021/01/11 04:39:55;;;;;;;1.35;1.25;;;-4.00;99.90;;;;;;5113214;28;20695;-76
2021/01/11 04:42:28;;;;;;;0.43;0.43;;;-4.10;99.90;;;;;;5112905;28;20222;-76
2021/01/11 04:44:58;;;;;;;0.20;0.20;;;-4.10;99.90;;;;;;5112883;28;20198;-76
2021/01/11 04:47:25;;;;;;;1.23;1.23;;;-4.10;99.90;;;;;;5111254;28;20167;-76
2021/01/11 04:49:53;;;;;;;0.30;0.30;;;-4.10;99.90;;;;;;5112831;28;20163;-76
2021/01/11 04:52:19;;;;;;;0.20;0.20;;;-4.10;99.90;;;;;;5112848;28;20238;-76
2021/01/11 04:54:51;;;;;;;0.30;0.30;;;-4.30;99.90;;;;;;5111117;28;20195;-76
2021/01/11 04:57:22;;;;;;;0.20;0.20;;;-4.60;99.90;;;;;;5112648;28;20600;-76
2021/01/11 04:59:49;;;;;;;0.20;0.20;;;-4.70;99.90;;;;;;5112687;28;20160;-76
2021/01/11 05:02:22;;;;;;;2.00;1.85;;;-5.00;99.90;;;;;;5111332;28;20166;-76
2021/01/11 05:04:49;;;;;;;0.52;0.52;;;-5.20;99.90;;;;;;5112602;28;20183;-76
2021/01/11 05:07:22;;;;;;;0.30;0.30;;;-5.30;99.90;;;;;;5112726;28;20156;-76
2021/01/11 05:09:49;;;;;;;0.43;0.43;;;-5.40;99.90;;;;;;5112218;28;20179;-76
2021/01/11 05:12:15;;;;;;;0.28;0.28;;;-5.50;99.90;;;;;;5111195;28;20213;-75
2021/01/11 05:14:42;;;;;;;0.20;0.20;;;-5.60;99.90;;;;;;5112344;28;20152;-76
2021/01/11 05:17:13;;;;;;;0.40;0.40;;;-5.60;99.90;;;;;;5110927;28;20540;-76
2021/01/11 05:19:39;;;;;;;0.10;0.10;;;-5.70;99.90;;;;;;5112208;28;20175;-76
2021/01/11 05:22:09;;;;;;;0.40;0.40;;;-5.80;99.90;;;;;;5111037;28;20179;-76
2021/01/11 05:24:37;;;;;;;0.13;0.13;;;-5.80;99.90;;;;;;5112082;28;20155;-76
2021/01/11 05:27:08;;;;;;;1.30;1.20;;;-5.90;99.90;;;;;;5110932;28;20189;-76
2021/01/11 05:29:35;;;;;;;0.30;0.30;;;-5.60;99.90;;;;;;5110595;28;20171;-76
2021/01/11 05:32:05;;;;;;;0.30;0.30;;;-5.60;99.90;;;;;;5112051;28;20160;-76
2021/01/11 05:34:48;;;;;;;0.90;0.90;;;-5.70;99.90;;;;;;5110594;28;20160;-77
2021/01/11 05:37:45;;;;;;;0.63;0.63;;;-5.80;99.90;;;;;;5110668;28;20191;-76
2021/01/11 05:40:15;;;;;;;0.22;0.22;;;-5.80;99.90;;;;;;5112028;28;20155;-76
2021/01/11 05:42:47;;;;;;;0.20;0.20;;;-5.70;99.90;;;;;;5110132;28;20219;-76
2021/01/11 05:45:21;;;;;;;0.63;0.63;;;-5.90;99.90;;;;;;5109422;28;20222;-76
2021/01/11 05:47:54;;;;;;;0.20;0.20;;;-5.90;99.90;;;;;;5111987;28;20528;-77
2021/01/11 05:50:20;;;;;;;0.20;0.20;;;-5.80;99.90;;;;;;5110018;28;20235;-76
2021/01/11 05:52:46;;;;;;;0.20;0.20;;;-5.90;99.90;;;;;;5112211;28;20228;-76
2021/01/11 05:55:29;;;;;;;0.38;0.38;;;-5.80;99.90;;;;;;5111443;28;20187;-76
2021/01/11 05:58:00;;;;;;;0.20;0.20;;;-5.60;99.90;;;;;;5111585;28;20243;-76
2021/01/11 06:00:31;;;;;;;0.22;0.22;;;-5.60;99.90;;;;;;5111484;28;20606;-77
2021/01/11 06:02:58;;;;;;;0.35;0.35;;;-5.80;99.90;;;;;;5110308;28;20168;-76
2021/01/11 06:05:25;;;;;;;0.30;0.30;;;-5.60;99.90;;;;;;5111403;28;20208;-75
2021/01/11 06:07:51;;;;;;;1.42;1.42;;;-5.30;99.90;;;;;;5111248;28;20226;-76
2021/01/11 06:10:19;;;;;;;0.30;0.30;;;-5.10;99.90;;;;;;5109759;28;20191;-76
2021/01/11 06:12:46;;;;;;;0.98;0.98;;;-4.90;99.90;;;;;;5111305;28;20156;-76
2021/01/11 06:15:23;;;;;;;0.25;0.25;;;-4.90;99.90;;;;;;5109806;28;20217;-77
2021/01/11 06:17:52;;;;;;;1.55;1.13;;;-4.90;99.90;;;;;;5111145;28;20189;-75
2021/01/11 06:20:21;;;;;;;0.30;0.30;;;-4.80;99.90;;;;;;5109550;28;20254;-76
2021/01/11 06:22:47;;;;;;;0.30;0.30;;;-4.80;99.90;;;;;;5109797;28;20199;-75
2021/01/11 06:25:24;;;;;;;0.52;0.52;;;-4.80;99.90;;;;;;5111004;28;20240;-76
2021/01/11 06:27:57;;;;;;;0.40;0.40;;;-4.80;99.90;;;;;;5109277;28;20460;-75
2021/01/11 06:30:36;;;;;;;0.47;0.47;;;-4.80;99.90;;;;;;5110609;28;20183;-75
2021/01/11 06:33:09;;;;;;;0.10;0.10;;;-4.70;99.90;;;;;;5109228;28;20183;-77
2021/01/11 06:35:50;;;;;;;0.57;0.57;;;-4.70;99.90;;;;;;5108933;28;20408;-75
2021/01/11 06:38:25;;;;;;;0.30;0.30;;;-4.70;99.90;;;;;;5088862;28;20262;-76
2021/01/11 06:40:54;;;;;;;0.20;0.20;;;-4.70;99.90;;;;;;5090179;28;20178;-77
2021/01/11 06:43:22;;;;;;;0.50;0.50;;;-4.80;99.90;;;;;;5088868;28;20224;-76
2021/01/11 06:45:49;;;;;;;0.43;0.43;;;-5.00;99.90;;;;;;5088949;28;20222;-75
2021/01/11 06:48:20;;;;;;;0.20;0.20;;;-5.00;99.90;;;;;;5090062;28;20166;-76
2021/01/11 06:50:48;;;;;;;1.67;1.58;;;-5.10;99.90;;;;;;5088579;28;20192;-76
2021/01/11 06:53:26;;;;;;;0.25;0.25;;;-5.20;99.90;;;;;;5088614;28;20199;-74
2021/01/11 06:56:11;;;;;;;4.47;4.28;;;-5.20;99.90;;;;;;5089817;28;20191;-75
2021/01/11 06:58:39;;;;;;;0.28;0.28;;;-5.10;99.90;;;;;;5090013;28;20156;-75
2021/01/11 07:01:08;;;;;;;2.15;1.52;;;-5.10;99.90;;;;;;5088384;28;20220;-75
2021/01/11 07:03:50;;;;;;;1.33;1.33;;;-5.10;99.90;;;;;;5088553;28;20557;-75
2021/01/11 07:06:38;;;;;;;0.30;0.30;;;-5.30;99.90;;;;;;5089662;28;20187;-76
2021/01/11 07:09:19;;;;;;;0.20;0.20;;;-5.20;99.90;;;;;;5089999;28;20168;-76
2021/01/11 07:11:50;;;;;;;0.30;0.30;;;-5.40;99.90;;;;;;5089474;28;20187;-75
2021/01/11 07:14:21;;;;;;;0.22;0.22;;;-5.40;99.90;;;;;;5088301;28;20235;-73
2021/01/11 07:16:52;;;;;;;0.32;0.32;;;-5.40;99.90;;;;;;5089566;28;20184;-73
2021/01/11 07:19:36;;;;;;;2.38;2.17;;;-5.50;99.90;;;;;;5089546;28;20181;-76
2021/01/11 07:22:04;;;;;;;0.28;0.28;;;-5.30;99.90;;;;;;5089284;28;20164;-76
2021/01/11 07:24:30;;;;;;;0.38;0.38;;;-5.20;99.90;;;;;;5088876;28;20161;-76
2021/01/11 07:26:56;;;;;;;0.93;0.93;;;-5.10;99.90;;;;;;5089244;28;20220;-72
2021/01/11 07:29:23;;;;;;;0.20;0.20;;;-5.10;99.90;;;;;;5106545;28;20167;-75
2021/01/11 07:31:49;;;;;;;0.40;0.40;;;-5.20;99.90;;;;;;5108287;28;20191;-75
2021/01/11 07:34:16;;;;;;;1.27;1.27;;;-5.10;99.90;;;;;;5108489;28;20267;-76
2021/01/11 07:36:47;;;;;;;0.30;0.30;;;-5.30;99.90;;;;;;5109407;28;20555;-76
2021/01/11 07:39:19;;;;;;;0.30;0.30;;;-5.20;99.90;;;;;;5109292;28;20152;-76
2021/01/11 07:41:51;;;;;;;0.20;0.20;;;-5.30;99.90;;;;;;5108197;28;20167;-76
2021/01/11 07:44:25;;;;;;;0.40;0.40;;;-5.10;99.90;;;;;;5109193;28;20228;-76
2021/01/11 07:46:57;;;;;;;0.30;0.30;;;-5.10;99.90;;;;;;5108165;28;20167;-76
2021/01/11 07:49:25;;;;;;;1.52;1.42;;;-5.30;99.90;;;;;;5109373;28;20156;-74
2021/01/11 07:51:52;;;;;;;0.20;0.20;;;-5.20;99.90;;;;;;5109330;28;20187;-76
2021/01/11 07:54:20;;;;;;;0.20;0.20;;;-5.00;99.90;;;;;;5109241;28;20187;-75
2021/01/11 07:56:49;;;;;;;2.70;1.15;;;-5.00;99.90;;;;;;5107961;28;20193;-77
2021/01/11 07:59:15;;;;;;;0.20;0.20;;;-4.90;99.90;;;;;;5108242;28;20240;-75
2021/01/11 08:01:48;;;;;;;0.17;0.17;;;-4.80;99.90;;;;;;5109203;28;20209;-76
2021/01/11 08:04:16;;;;;;;0.20;0.20;;;-4.70;99.90;;;;;;5107690;28;20205;-74
2021/01/11 08:06:50;;;;;;;0.30;0.30;;;-4.60;99.90;;;;;;5108064;28;20167;-74
2021/01/11 08:09:17;;;;;;;0.20;0.20;;;-4.30;99.90;;;;;;5108641;28;20152;-76
2021/01/11 08:11:43;;;;;;;0.10;0.10;;;-4.00;99.90;;;;;;5107971;28;20195;-76
2021/01/11 08:14:11;;;;;;;0.30;0.30;;;-3.50;99.90;;;;;;5107954;28;20206;-75
2021/01/11 08:16:40;;;;;;;1.23;1.23;;;-3.20;99.90;;;;;;5109037;28;20159;-74
2021/01/11 08:19:08;;;;;;;0.52;0.52;;;-3.10;99.90;;;;;;5109159;28;20147;-77
2021/01/11 08:21:35;;;;;;;0.28;0.28;;;-2.70;99.90;;;;;;5109173;28;20163;-75
2021/01/11 08:24:08;;;;;;;0.82;0.82;;;-1.80;99.90;;;;;;5108660;28;20187;-77
2021/01/11 08:26:47;;;;;;;0.30;0.30;;;-0.80;99.90;;;;;;5107813;28;20167;-77
2021/01/11 08:29:14;;;;;;;0.30;0.30;;;0.10;99.90;;;;;;5108933;28;20159;-76
2021/01/11 08:31:42;;;;;;;0.17;0.17;;;0.70;99.90;;;;;;5108930;28;20207;-77
2021/01/11 08:34:08;;;;;;;0.20;0.20;;;1.00;99.90;;;;;;5109050;28;20187;-76
2021/01/11 08:36:34;;;;;;;0.20;0.20;;;1.00;99.90;;;;;;5108897;28;20179;-75
2021/01/11 08:39:12;;;;;;;1.60;1.52;;;1.60;99.90;;;;;;5109041;28;20177;-76
2021/01/11 08:41:55;;;;;;;6.03;1.85;;;2.10;99.90;;;;;;5107430;28;20230;-75
2021/01/11 08:44:33;;;;;;;1.00;1.00;;;2.00;99.90;;;;;;5107553;28;20203;-75
2021/01/11 08:47:02;;;;;;;0.63;0.63;;;1.30;99.90;;;;;;5108971;28;20185;-76
2021/01/11 08:49:29;;;;;;;0.80;0.80;;;1.10;99.90;;;;;;5107532;28;20176;-76
2021/01/11 08:52:09;;;;;;;0.98;0.98;;;1.50;99.90;;;;;;5107445;28;20202;-76
2021/01/11 08:54:36;;;;;;;1.63;1.63;;;1.70;99.90;;;;;;5107058;28;20546;-76
2021/01/11 08:57:11;;;;;;;0.85;0.85;;;2.10;99.90;;;;;;5107618;28;20163;-76
2021/01/11 08:59:45;;;;;;;0.30;0.30;;;2.90;99.90;;;;;;5108799;28;20147;-76
2021/01/11 09:02:24;;;;;;;1.08;1.08;;;3.30;99.90;;;;;;5108028;28;20178;-76
2021/01/11 09:04:50;;;;;;;1.77;1.58;;;3.50;99.90;;;;;;5107406;28;20195;-75
2021/01/11 09:07:25;;;;;;;0.20;0.20;;;3.70;99.90;;;;;;5108796;28;20161;-76
2021/01/11 09:09:51;;;;;;;0.50;0.50;;;3.80;99.90;;;;;;5107986;28;20515;-76
2021/01/11 09:12:26;;;;;;;0.45;0.45;;;4.20;99.90;;;;;;5106769;28;20168;-77
2021/01/11 09:14:53;;;;;;;0.10;0.10;;;4.80;99.90;;;;;;5106701;28;20206;-76
2021/01/11 09:17:27;;;;;;;0.75;0.75;;;5.20;99.90;;;;;;5106660;28;20171;-76
2021/01/11 09:19:54;;;;;;;0.22;0.22;;;5.70;99.90;;;;;;5107918;28;20147;-76
2021/01/11 09:22:31;;;;;;;0.95;0.93;;;5.70;99.90;;;;;;5110320;28;20174;-76
2021/01/11 09:24:57;;;;;;;1.45;1.42;;;5.70;99.90;;;;;;5111578;28;20707;-77
2021/01/11 09:27:24;;;;;;;0.90;0.90;;;6.10;99.90;;;;;;5110101;28;20217;-76
2021/01/11 09:29:51;;;;;;;0.82;0.82;;;6.50;99.90;;;;;;5109753;28;20163;-75
2021/01/11 09:32:18;;;;;;;1.05;1.00;;;6.80;99.90;;;;;;5111298;28;20147;-76
2021/01/11 09:34:45;;;;;;;1.30;1.20;;;7.00;99.90;;;;;;5109920;28;20163;-76
2021/01/11 09:37:12;;;;;;;0.30;0.30;;;6.80;99.90;;;;;;5111323;28;20519;-76
2021/01/11 09:39:38;;;;;;;2.35;1.15;;;6.90;99.90;;;;;;5111093;28;20227;-76
2021/01/11 09:42:05;;;;;;;0.57;0.57;;;7.70;99.90;;;;;;5109692;28;20226;-77
2021/01/11 09:44:31;;;;;;;0.30;0.30;;;7.60;99.90;;;;;;5111077;28;20167;-77
2021/01/11 09:46:59;;;;;;;1.20;1.20;;;8.30;99.90;;;;;;5109878;28;20531;-77
2021/01/11 09:49:26;;;;;;;1.48;1.38;;;8.90;99.90;;;;;;5109723;28;20160;-76
2021/01/11 09:51:52;;;;;;;1.30;0.93;;;9.50;99.90;;;;;;5109690;28;20256;-76
2021/01/11 09:54:19;;;;;;;0.47;0.47;;;9.90;99.90;;;;;;5109731;28;20168;-77
2021/01/11 09:56:45;;;;;;;1.35;0.95;;;10.00;99.90;;;;;;5110804;28;20183;-77
2021/01/11 09:59:12;;;;;;;0.70;0.70;;;10.00;99.90;;;;;;5110883;28;20167;-77
2021/01/11 10:01:41;;;;;;;2.92;0.95;;;9.70;99.90;;;;;;5109631;28;20167;-75
2021/01/11 10:04:08;;;;;;;0.35;0.35;;;9.40;99.90;;;;;;5110933;28;20215;-76
2021/01/11 10:06:52;;;;;;;0.10;0.10;;;9.50;99.90;;;;;;5110712;28;20207;-75
2021/01/11 10:09:20;;;;;;;1.15;1.15;;;8.90;99.90;;;;;;5110772;28;20163;-77
2021/01/11 10:11:57;;;;;;;0.73;0.73;;;8.20;99.90;;;;;;5109339;28;20202;-80
2021/01/11 10:14:24;;;;;;;1.45;1.35;;;8.60;99.90;;;;;;5109385;28;20164;-81
2021/01/11 10:16:50;;;;;;;2.15;0.95;;;9.70;99.90;;;;;;5109026;28;20195;-80
2021/01/11 10:19:18;;;;;;;2.38;2.17;;;10.50;99.90;;;;;;5110315;28;20216;-76
2021/01/11 10:21:45;;;;;;;0.90;0.90;;;10.80;99.90;;;;;;5110481;28;20156;-77
2021/01/11 10:24:12;;;;;;;0.55;0.55;;;10.10;99.90;;;;;;5108995;28;20168;-75
2021/01/11 10:26:42;;;;;;;1.40;1.27;;;9.70;99.90;;;;;;5110373;28;20202;-77
2021/01/11 10:29:08;;;;;;;0.47;0.47;;;8.90;99.90;;;;;;5109141;28;20171;-77
2021/01/11 10:31:34;;;;;;;1.33;1.23;;;7.90;99.90;;;;;;5108047;28;20245;-76
2021/01/11 10:34:00;;;;;;;1.67;1.60;;;7.80;99.90;;;;;;5110150;28;20164;-77
2021/01/11 10:36:26;;;;;;;0.38;0.38;;;8.30;99.90;;;;;;5108728;28;20628;-76
2021/01/11 10:38:52;;;;;;;1.17;1.17;;;8.50;99.90;;;;;;5110051;28;20156;-75
2021/01/11 10:41:20;;;;;;;0.38;0.38;;;8.10;99.90;;;;;;5109916;28;20163;-78
2021/01/11 10:43:48;;;;;;;1.65;1.15;;;7.80;99.90;;;;;;5109771;28;20230;-77
2021/01/11 10:46:17;;;;;;;2.38;2.08;;;7.30;99.90;;;;;;5109890;28;20191;-75
2021/01/11 10:48:46;;;;;;;1.00;1.00;;;6.80;99.90;;;;;;5108631;28;20552;-76
2021/01/11 10:51:14;;;;;;;1.05;1.05;;;6.60;99.90;;;;;;5105685;28;20267;-76
2021/01/11 10:53:43;;;;;;;0.13;0.13;;;7.00;99.90;;;;;;5109332;28;20243;-76
2021/01/11 10:56:11;;;;;;;0.85;0.85;;;7.10;99.90;;;;;;5109505;28;20211;-76
2021/01/11 10:58:37;;;;;;;1.15;1.15;;;7.60;99.90;;;;;;5108309;28;20163;-77
2021/01/11 11:01:06;;;;;;;0.50;0.50;;;7.90;99.90;;;;;;5109322;28;20235;-77
2021/01/11 11:03:32;;;;;;;0.55;0.55;;;7.60;99.90;;;;;;5104381;28;20201;-77
2021/01/11 11:05:59;;;;;;;1.05;1.00;;;7.20;99.90;;;;;;5089412;28;20207;-76
2021/01/11 11:08:25;;;;;;;1.50;1.42;;;7.60;99.90;;;;;;5109304;28;20163;-77
2021/01/11 11:10:51;;;;;;;0.80;0.80;;;7.70;99.90;;;;;;5107930;28;20334;-76
2021/01/11 11:13:17;;;;;;;0.82;0.82;;;7.70;99.90;;;;;;5108150;28;20194;-76
2021/01/11 11:15:43;;;;;;;2.15;1.95;;;7.80;99.90;;;;;;5109440;28;20211;-77
2021/01/11 11:18:11;;;;;;;2.13;1.45;;;7.40;99.90;;;;;;5109351;28;20179;-76
2021/01/11 11:20:37;;;;;;;0.80;0.80;;;7.50;99.90;;;;;;5107556;28;20628;-76
2021/01/11 11:23:03;;;;;;;0.98;0.98;;;7.60;99.90;;;;;;5107192;28;20272;-76
2021/01/11 11:25:29;;;;;;;0.85;0.77;;;7.60;99.90;;;;;;5088783;28;20179;-75
2021/01/11 11:27:55;;;;;;;1.95;1.50;;;7.00;99.90;;;;;;5087449;28;20190;-76
2021/01/11 11:30:21;;;;;;;0.93;0.93;;;6.50;99.90;;;;;;5088735;28;20192;-76
2021/01/11 11:32:51;;;;;;;1.52;0.63;;;6.80;99.90;;;;;;5088748;28;20152;-77
2021/01/11 11:35:19;;;;;;;0.93;0.93;;;6.60;99.90;;;;;;5089023;28;20192;-76
2021/01/11 11:37:46;;;;;;;0.80;0.80;;;6.50;99.90;;;;;;5088887;28;20245;-77
2021/01/11 11:40:13;;;;;;;0.95;0.95;;;7.00;99.90;;;;;;5087321;28;20172;-78
2021/01/11 11:42:40;;;;;;;1.23;1.15;;;6.90;99.90;;;;;;5087895;28;20224;-78
2021/01/11 11:45:09;;;;;;;0.30;0.30;;;7.10;99.90;;;;;;5087061;28;20199;-78
2021/01/11 11:47:37;;;;;;;3.35;1.65;;;7.20;99.90;;;;;;5088742;28;20157;-77
2021/01/11 11:50:07;;;;;;;1.58;1.48;;;7.10;99.90;;;;;;5087431;28;20196;-77
2021/01/11 11:52:33;;;;;;;0.65;0.65;;;7.20;99.90;;;;;;5088688;28;20218;-78
2021/01/11 11:55:00;;;;;;;0.95;0.95;;;7.80;99.90;;;;;;5088530;28;20267;-77
2021/01/11 11:57:25;;;;;;;0.68;0.68;;;7.70;99.90;;;;;;5087395;28;20171;-76
2021/01/11 11:59:51;;;;;;;1.73;1.63;;;8.50;99.90;;;;;;5088776;28;20159;-76
2021/01/11 12:02:17;;;;;;;0.40;0.40;;;8.10;99.90;;;;;;5087021;28;20164;-76
2021/01/11 12:04:43;;;;;;;0.73;0.55;;;8.10;99.90;;;;;;5088480;28;20188;-77
2021/01/11 12:07:16;;;;;;;0.50;0.50;;;7.60;99.90;;;;;;5087192;28;20164;-78
2021/01/11 12:09:43;;;;;;;1.10;0.90;;;7.80;99.90;;;;;;5088509;28;20160;-77
2021/01/11 12:12:13;;;;;;;0.63;0.63;;;7.80;99.90;;;;;;5088408;28;20192;-77
2021/01/11 12:14:39;;;;;;;1.08;0.85;;;7.90;99.90;;;;;;5087112;28;20229;-76
2021/01/11 12:17:05;;;;;;;0.45;0.45;;;8.00;99.90;;;;;;5088490;28;20156;-76
2021/01/11 12:19:31;;;;;;;0.20;0.20;;;8.30;99.90;;;;;;5088387;28;20152;-78
2021/01/11 12:21:57;;;;;;;0.65;0.65;;;8.40;99.90;;;;;;5088199;28;20616;-77
2021/01/11 12:24:22;;;;;;;1.45;1.35;;;8.10;99.90;;;;;;5087037;28;20290;-77
2021/01/11 12:26:50;;;;;;;0.13;0.13;;;7.80;99.90;;;;;;5088243;28;20179;-77
2021/01/11 12:29:17;;;;;;;1.40;1.30;;;7.50;99.90;;;;;;5086979;28;20243;-76
2021/01/11 12:31:44;;;;;;;1.10;1.00;;;7.90;99.90;;;;;;5086461;28;20192;-76
2021/01/11 12:34:11;;;;;;;0.30;0.30;;;8.30;99.90;;;;;;5088241;28;20192;-76
2021/01/11 12:36:38;;;;;;;2.22;1.48;;;8.40;99.90;;;;;;5088289;28;20152;-74
2021/01/11 12:39:07;;;;;;;0.73;0.73;;;8.10;99.90;;;;;;5088136;28;20606;-75
2021/01/11 12:41:34;;;;;;;0.55;0.55;;;7.10;99.90;;;;;;5087986;28;20160;-75
2021/01/11 12:44:00;;;;;;;0.25;0.25;;;6.00;99.90;;;;;;5093139;28;20194;-73
2021/01/11 12:46:26;;;;;;;0.40;0.38;;;5.10;99.90;;;;;;5107112;28;20170;-74
2021/01/11 12:48:52;;;;;;;0.25;0.25;;;4.50;99.90;;;;;;5102893;28;20195;-75
2021/01/11 12:51:19;;;;;;;0.15;0.15;;;3.90;99.90;;;;;;5108380;28;20213;-73
2021/01/11 12:53:47;;;;;;;0.10;0.10;;;3.60;99.90;;;;;;5108080;28;20152;-73
2021/01/11 12:56:18;;;;;;;0.20;0.20;;;3.50;99.90;;;;;;5111821;28;20624;-74
2021/01/11 12:58:45;;;;;;;0.40;0.40;;;3.40;99.90;;;;;;5111009;28;20221;-73
2021/01/11 13:01:37;;;;;;;0.10;0.10;;;3.30;99.90;;;;;;5111932;28;20616;-74